createdAt,value
2018-07-02T00:00:05.257Z,10.97
2018-07-02T00:01:05.734Z,10.96
2018-07-02T00:02:06.203Z,10.94
2018-07-02T00:03:06.679Z,10.92
2018-07-02T00:04:07.149Z,10.91
2018-07-02T00:05:07.623Z,10.90
2018-07-02T00:06:08.095Z,10.88
2018-07-02T00:07:08.566Z,10.86
2018-07-02T00:08:09.043Z,10.87
2018-07-02T00:09:09.510Z,10.86
2018-07-02T00:10:09.982Z,10.85
2018-07-02T00:11:10.456Z,10.84
2018-07-02T00:12:10.925Z,10.82
2018-07-02T00:13:11.399Z,10.80
2018-07-02T00:14:11.871Z,10.80
2018-07-02T00:15:12.339Z,10.78
2018-07-02T00:16:12.860Z,10.77
2018-07-02T00:17:13.285Z,10.75
2018-07-02T00:18:13.754Z,10.74
2018-07-02T00:19:14.225Z,10.73
2018-07-02T00:20:14.695Z,10.74
2018-07-02T00:21:15.169Z,10.72
2018-07-02T00:22:15.637Z,10.70
2018-07-02T00:23:16.106Z,10.69
2018-07-02T00:24:16.577Z,10.68
2018-07-02T00:25:17.049Z,10.66
2018-07-02T00:26:17.570Z,10.66
2018-07-02T00:27:17.991Z,10.66
2018-07-02T00:28:18.460Z,10.63
2018-07-02T00:29:18.931Z,10.61
2018-07-02T00:30:19.407Z,10.63
2018-07-02T00:31:19.872Z,10.62
2018-07-02T00:33:20.816Z,10.60
2018-07-02T00:34:21.288Z,10.54
2018-07-02T00:35:21.760Z,10.54
2018-07-02T00:36:22.231Z,10.54
2018-07-02T00:37:22.703Z,10.52
2018-07-02T00:38:23.175Z,10.52
2018-07-02T00:39:23.649Z,10.50
2018-07-02T00:40:24.120Z,10.50
2018-07-02T00:41:24.593Z,10.48
2018-07-02T00:42:25.066Z,10.48
2018-07-02T00:43:25.539Z,10.46
2018-07-02T00:44:26.010Z,10.46
2018-07-02T00:45:26.485Z,10.46
2018-07-02T00:46:27.008Z,10.44
2018-07-02T00:47:27.434Z,10.44
2018-07-02T00:48:27.903Z,10.42
2018-07-02T00:49:28.378Z,10.42
2018-07-02T00:50:28.852Z,10.42
2018-07-02T00:51:29.329Z,10.41
2018-07-02T00:52:29.800Z,10.40
2018-07-02T00:53:30.277Z,10.38
2018-07-02T00:54:30.750Z,10.39
2018-07-02T00:55:31.225Z,10.38
2018-07-02T00:56:31.697Z,10.38
2018-07-02T00:57:32.173Z,10.37
2018-07-02T00:58:32.649Z,10.36
2018-07-02T00:59:33.124Z,10.34
2018-07-02T01:00:33.596Z,10.34
2018-07-02T01:01:34.074Z,10.33
2018-07-02T01:02:34.546Z,10.32
2018-07-02T01:03:35.019Z,10.32
2018-07-02T01:04:35.492Z,10.32
2018-07-02T01:05:35.967Z,10.29
2018-07-02T01:06:36.443Z,10.34
2018-07-02T01:07:36.914Z,10.32
2018-07-02T01:08:37.389Z,10.31
2018-07-02T01:09:37.862Z,10.30
2018-07-02T01:10:38.335Z,10.28
2018-07-02T01:11:38.808Z,10.28
2018-07-02T01:12:39.281Z,10.26
2018-07-02T01:13:39.754Z,10.26
2018-07-02T01:14:40.228Z,10.24
2018-07-02T01:15:40.706Z,10.24
2018-07-02T01:16:41.224Z,10.22
2018-07-02T01:17:41.644Z,10.20
2018-07-02T01:18:42.115Z,10.20
2018-07-02T01:19:42.672Z,10.20
2018-07-02T01:20:43.060Z,10.19
2018-07-02T01:21:43.531Z,10.19
2018-07-02T01:22:44.001Z,10.17
2018-07-02T01:23:44.474Z,10.15
2018-07-02T01:24:44.945Z,10.16
2018-07-02T01:25:45.415Z,10.13
2018-07-02T01:26:45.891Z,10.13
2018-07-02T01:27:46.360Z,10.10
2018-07-02T01:28:46.831Z,10.12
2018-07-02T01:29:47.299Z,10.10
2018-07-02T01:30:47.769Z,10.08
2018-07-02T01:31:48.243Z,10.08
2018-07-02T01:32:48.714Z,10.07
2018-07-02T01:33:49.182Z,10.06
2018-07-02T01:34:49.653Z,10.06
2018-07-02T01:35:50.123Z,10.05
2018-07-02T01:36:50.595Z,10.03
2018-07-02T01:37:51.065Z,10.02
2018-07-02T01:38:51.535Z,10.02
2018-07-02T01:39:52.008Z,10.00
2018-07-02T01:40:52.476Z,10.01
2018-07-02T01:41:52.949Z,9.99
2018-07-02T01:42:53.422Z,10.00
2018-07-02T01:43:53.892Z,9.99
2018-07-02T01:44:54.364Z,9.98
2018-07-02T01:45:54.838Z,9.97
2018-07-02T01:46:55.307Z,9.97
2018-07-02T01:47:55.779Z,9.96
2018-07-02T01:48:56.250Z,9.94
2018-07-02T01:49:56.722Z,9.94
2018-07-02T01:50:57.195Z,9.93
2018-07-02T01:51:57.669Z,9.92
2018-07-02T01:52:58.145Z,9.93
2018-07-02T01:53:58.613Z,9.94
2018-07-02T01:54:59.089Z,9.92
2018-07-02T01:55:59.561Z,9.90
2018-07-02T01:57:00.034Z,9.90
2018-07-02T01:58:00.507Z,9.91
2018-07-02T01:59:00.981Z,9.90
2018-07-02T02:00:01.457Z,9.86
2018-07-02T02:01:01.930Z,9.87
2018-07-02T02:02:02.457Z,9.89
2018-07-02T02:03:02.884Z,9.88
2018-07-02T02:04:03.355Z,9.86
2018-07-02T02:05:03.827Z,9.87
2018-07-02T02:06:04.304Z,9.86
2018-07-02T02:07:04.778Z,9.84
2018-07-02T02:08:05.255Z,9.84
2018-07-02T02:09:05.725Z,9.83
2018-07-02T02:10:06.201Z,9.82
2018-07-02T02:11:06.673Z,9.81
2018-07-02T02:12:07.201Z,9.80
2018-07-02T02:13:07.620Z,9.80
2018-07-02T02:14:08.096Z,9.80
2018-07-02T02:15:08.570Z,9.79
2018-07-02T02:16:09.046Z,9.79
2018-07-02T02:17:09.515Z,9.78
2018-07-02T02:18:09.990Z,9.78
2018-07-02T02:19:10.462Z,9.76
2018-07-02T02:20:10.937Z,9.76
2018-07-02T02:21:11.408Z,9.76
2018-07-02T02:22:11.881Z,9.76
2018-07-02T02:23:12.353Z,9.74
2018-07-02T02:24:12.826Z,9.74
2018-07-02T02:25:13.305Z,9.73
2018-07-02T02:26:13.771Z,9.73
2018-07-02T02:27:14.243Z,9.72
2018-07-02T02:28:14.715Z,9.71
2018-07-02T02:29:15.186Z,9.72
2018-07-02T02:30:15.659Z,9.70
2018-07-02T02:31:16.131Z,9.69
2018-07-02T02:32:16.600Z,9.69
2018-07-02T02:33:17.070Z,9.68
2018-07-02T02:34:17.546Z,9.68
2018-07-02T02:35:18.016Z,9.66
2018-07-02T02:36:18.486Z,9.68
2018-07-02T02:37:18.956Z,9.66
2018-07-02T02:38:19.431Z,9.66
2018-07-02T02:39:19.897Z,9.65
2018-07-02T02:40:20.367Z,9.64
2018-07-02T02:41:20.838Z,9.64
2018-07-02T02:42:21.307Z,9.64
2018-07-02T02:43:21.777Z,9.64
2018-07-02T02:44:22.251Z,9.62
2018-07-02T02:45:22.720Z,9.61
2018-07-02T02:46:23.189Z,9.62
2018-07-02T02:47:23.663Z,9.60
2018-07-02T02:48:24.133Z,9.60
2018-07-02T02:49:24.603Z,9.60
2018-07-02T02:50:25.075Z,9.58
2018-07-02T02:51:25.546Z,9.58
2018-07-02T02:52:26.020Z,9.59
2018-07-02T02:53:26.510Z,9.58
2018-07-02T02:54:26.961Z,9.58
2018-07-02T02:55:27.432Z,9.58
2018-07-02T02:56:27.905Z,9.58
2018-07-02T02:57:28.377Z,9.56
2018-07-02T02:58:28.851Z,9.57
2018-07-02T02:59:29.354Z,9.56
2018-07-02T03:00:29.840Z,9.56
2018-07-02T03:01:30.265Z,9.56
2018-07-02T03:02:30.790Z,9.56
2018-07-02T03:03:31.219Z,9.53
2018-07-02T03:04:31.687Z,9.55
2018-07-02T03:05:32.159Z,9.54
2018-07-02T03:06:32.634Z,9.54
2018-07-02T03:07:33.108Z,9.52
2018-07-02T03:08:33.581Z,9.52
2018-07-02T03:09:34.058Z,9.52
2018-07-02T03:10:34.529Z,9.52
2018-07-02T03:11:35.005Z,9.53
2018-07-02T03:12:35.483Z,9.52
2018-07-02T03:13:35.954Z,9.52
2018-07-02T03:14:36.427Z,9.51
2018-07-02T03:15:36.904Z,9.51
2018-07-02T03:16:37.387Z,9.50
2018-07-02T03:17:37.913Z,9.50
2018-07-02T03:18:38.324Z,9.50
2018-07-02T03:19:38.801Z,9.50
2018-07-02T03:20:39.277Z,9.50
2018-07-02T03:21:39.747Z,9.48
2018-07-02T03:22:40.223Z,9.49
2018-07-02T03:23:40.697Z,9.48
2018-07-02T03:24:41.170Z,9.48
2018-07-02T03:25:41.643Z,9.48
2018-07-02T03:26:42.117Z,9.47
2018-07-02T03:27:42.591Z,9.48
2018-07-02T03:28:43.063Z,9.47
2018-07-02T03:29:43.535Z,9.47
2018-07-02T03:30:44.010Z,9.46
2018-07-02T03:31:44.481Z,9.46
2018-07-02T03:32:44.955Z,9.44
2018-07-02T03:33:45.426Z,9.46
2018-07-02T03:34:45.900Z,9.46
2018-07-02T03:35:46.371Z,9.46
2018-07-02T03:36:49.686Z,9.46
2018-07-02T03:37:47.365Z,9.44
2018-07-02T03:38:47.786Z,9.45
2018-07-02T03:39:48.257Z,9.44
2018-07-02T03:40:48.728Z,9.44
2018-07-02T03:41:49.200Z,9.46
2018-07-02T03:42:49.672Z,9.44
2018-07-02T03:43:50.143Z,9.44
2018-07-02T03:44:50.613Z,9.44
2018-07-02T03:45:51.084Z,9.44
2018-07-02T03:46:51.553Z,9.44
2018-07-02T03:47:52.075Z,9.44
2018-07-02T03:48:52.496Z,9.44
2018-07-02T03:49:52.966Z,9.44
2018-07-02T03:50:53.437Z,9.44
2018-07-02T03:51:53.946Z,9.46
2018-07-02T03:52:54.378Z,9.44
2018-07-02T03:53:54.895Z,9.46
2018-07-02T03:54:55.319Z,9.46
2018-07-02T03:55:55.792Z,9.48
2018-07-02T03:56:56.264Z,9.47
2018-07-02T03:57:56.735Z,9.49
2018-07-02T03:58:57.208Z,9.50
2018-07-02T03:59:57.678Z,9.51
2018-07-02T04:00:58.151Z,9.52
2018-07-02T04:01:58.620Z,9.53
2018-07-02T04:02:59.091Z,9.55
2018-07-02T04:03:59.566Z,9.56
2018-07-02T04:05:00.041Z,9.57
2018-07-02T04:06:00.509Z,9.58
2018-07-02T04:07:00.983Z,9.60
2018-07-02T04:08:01.459Z,9.62
2018-07-02T04:09:01.927Z,9.64
2018-07-02T04:10:02.405Z,9.66
2018-07-02T04:11:02.875Z,9.66
2018-07-02T04:12:03.358Z,9.70
2018-07-02T04:13:03.823Z,9.71
2018-07-02T04:14:04.297Z,9.76
2018-07-02T04:15:04.771Z,9.74
2018-07-02T04:16:05.245Z,9.76
2018-07-02T04:17:05.721Z,9.78
2018-07-02T04:18:06.193Z,9.80
2018-07-02T04:19:06.667Z,9.82
2018-07-02T04:20:07.142Z,9.84
2018-07-02T04:21:07.617Z,9.87
2018-07-02T04:22:08.091Z,9.90
2018-07-02T04:23:08.568Z,9.92
2018-07-02T04:24:09.044Z,9.95
2018-07-02T04:25:09.520Z,9.98
2018-07-02T04:26:09.991Z,10.01
2018-07-02T04:27:10.469Z,10.04
2018-07-02T04:28:10.941Z,10.08
2018-07-02T04:29:11.416Z,10.09
2018-07-02T04:30:11.890Z,10.13
2018-07-02T04:31:12.365Z,10.14
2018-07-02T04:32:12.840Z,10.17
2018-07-02T04:33:13.316Z,10.21
2018-07-02T04:34:13.816Z,10.24
2018-07-02T04:35:14.342Z,10.28
2018-07-02T04:36:14.736Z,10.31
2018-07-02T04:37:15.211Z,10.34
2018-07-02T04:38:15.683Z,10.37
2018-07-02T04:39:16.156Z,10.40
2018-07-02T04:40:16.632Z,10.44
2018-07-02T04:41:17.105Z,10.49
2018-07-02T04:42:17.577Z,10.53
2018-07-02T04:43:18.051Z,10.56
2018-07-02T04:44:18.524Z,10.58
2018-07-02T04:45:18.998Z,10.63
2018-07-02T04:46:19.468Z,10.65
2018-07-02T04:47:19.942Z,10.70
2018-07-02T04:48:20.416Z,10.73
2018-07-02T04:49:20.887Z,10.78
2018-07-02T04:50:21.358Z,10.79
2018-07-02T04:51:21.831Z,10.84
2018-07-02T04:52:22.303Z,10.87
2018-07-02T04:53:22.774Z,10.92
2018-07-02T04:54:23.245Z,10.95
2018-07-02T04:55:23.716Z,10.98
2018-07-02T04:56:24.191Z,11.02
2018-07-02T04:57:24.660Z,11.06
2018-07-02T04:58:25.131Z,11.10
2018-07-02T04:59:25.604Z,11.13
2018-07-02T05:00:26.077Z,11.16
2018-07-02T05:01:26.545Z,11.22
2018-07-02T05:02:27.017Z,11.25
2018-07-02T05:03:27.489Z,11.28
2018-07-02T05:04:27.962Z,11.32
2018-07-02T05:05:28.443Z,11.36
2018-07-02T05:06:28.904Z,11.40
2018-07-02T05:07:29.376Z,11.43
2018-07-02T05:08:29.849Z,11.48
2018-07-02T05:09:30.323Z,11.52
2018-07-02T05:10:30.791Z,11.54
2018-07-02T05:11:31.268Z,11.60
2018-07-02T05:12:31.738Z,11.64
2018-07-02T05:13:32.260Z,11.67
2018-07-02T05:14:32.683Z,11.72
2018-07-02T05:15:33.156Z,11.76
2018-07-02T05:16:33.632Z,11.79
2018-07-02T05:17:34.105Z,11.84
2018-07-02T05:18:34.577Z,11.87
2018-07-02T05:19:35.052Z,11.92
2018-07-02T05:21:36.001Z,12.01
2018-07-02T05:22:36.475Z,12.04
2018-07-02T05:23:36.949Z,12.09
2018-07-02T05:24:37.425Z,12.12
2018-07-02T05:25:37.900Z,12.16
2018-07-02T05:26:38.373Z,12.20
2018-07-02T05:27:38.852Z,12.24
2018-07-02T05:28:39.324Z,12.28
2018-07-02T05:29:39.802Z,12.31
2018-07-02T05:30:40.278Z,12.36
2018-07-02T05:31:40.754Z,12.40
2018-07-02T05:32:41.232Z,12.44
2018-07-02T05:33:41.704Z,12.48
2018-07-02T05:34:42.179Z,12.54
2018-07-02T05:35:42.859Z,12.58
2018-07-02T05:36:43.132Z,12.62
2018-07-02T05:37:43.609Z,12.66
2018-07-02T05:38:44.132Z,12.71
2018-07-02T05:39:44.559Z,12.75
2018-07-02T05:40:45.033Z,12.80
2018-07-02T05:41:45.511Z,12.84
2018-07-02T05:42:45.986Z,12.88
2018-07-02T05:43:46.461Z,12.92
2018-07-02T05:44:46.938Z,12.96
2018-07-02T05:45:47.409Z,13.01
2018-07-02T05:46:47.888Z,13.05
2018-07-02T05:47:48.360Z,13.10
2018-07-02T05:48:48.833Z,13.14
2018-07-02T05:49:49.311Z,13.20
2018-07-02T05:50:49.785Z,13.23
2018-07-02T05:51:50.258Z,13.26
2018-07-02T05:52:50.735Z,13.32
2018-07-02T05:53:51.260Z,13.35
2018-07-02T05:54:51.685Z,13.41
2018-07-02T05:55:52.158Z,13.45
2018-07-02T05:56:52.632Z,13.49
2018-07-02T05:57:53.103Z,13.53
2018-07-02T05:58:53.578Z,13.58
2018-07-02T05:59:54.052Z,13.62
2018-07-02T06:00:54.526Z,13.66
2018-07-02T06:01:54.999Z,13.69
2018-07-02T06:02:55.471Z,13.74
2018-07-02T06:03:55.944Z,13.78
2018-07-02T06:04:56.419Z,13.83
2018-07-02T06:05:56.894Z,13.86
2018-07-02T06:06:57.366Z,13.90
2018-07-02T06:07:57.859Z,13.95
2018-07-02T06:08:58.312Z,13.98
2018-07-02T06:09:58.785Z,14.02
2018-07-02T06:10:59.258Z,14.06
2018-07-02T06:11:59.730Z,14.10
2018-07-02T06:13:00.204Z,14.12
2018-07-02T06:14:00.677Z,14.15
2018-07-02T06:15:01.148Z,14.20
2018-07-02T06:16:01.621Z,14.25
2018-07-02T06:17:02.094Z,14.28
2018-07-02T06:18:02.569Z,14.32
2018-07-02T06:19:03.054Z,14.35
2018-07-02T06:20:03.511Z,14.40
2018-07-02T06:21:03.985Z,14.44
2018-07-02T06:22:04.459Z,14.48
2018-07-02T06:23:04.925Z,14.52
2018-07-02T06:24:05.401Z,14.54
2018-07-02T06:25:05.872Z,14.60
2018-07-02T06:26:06.345Z,14.61
2018-07-02T06:27:06.816Z,14.66
2018-07-02T06:28:07.291Z,14.69
2018-07-02T06:29:07.763Z,14.74
2018-07-02T06:30:08.233Z,14.78
2018-07-02T06:31:08.703Z,14.82
2018-07-02T06:32:09.176Z,14.84
2018-07-02T06:33:09.649Z,14.87
2018-07-02T06:34:10.121Z,14.91
2018-07-02T06:35:10.594Z,14.96
2018-07-02T06:36:11.063Z,15.00
2018-07-02T06:37:11.538Z,15.04
2018-07-02T06:38:12.009Z,15.07
2018-07-02T06:39:12.534Z,15.12
2018-07-02T06:40:12.955Z,15.15
2018-07-02T06:41:13.430Z,15.19
2018-07-02T06:42:13.904Z,15.24
2018-07-02T06:43:14.375Z,15.28
2018-07-02T06:44:14.900Z,15.32
2018-07-02T06:45:15.323Z,15.35
2018-07-02T06:46:15.799Z,15.38
2018-07-02T06:47:16.273Z,15.42
2018-07-02T06:48:16.747Z,15.48
2018-07-02T06:49:17.223Z,15.50
2018-07-02T06:50:17.697Z,15.56
2018-07-02T06:51:18.173Z,15.60
2018-07-02T06:52:18.646Z,15.63
2018-07-02T06:53:19.127Z,15.67
2018-07-02T06:54:19.599Z,15.72
2018-07-02T06:55:20.081Z,15.76
2018-07-02T06:56:20.551Z,15.80
2018-07-02T06:57:21.029Z,15.84
2018-07-02T06:58:21.505Z,15.87
2018-07-02T06:59:21.980Z,15.92
2018-07-02T07:00:22.457Z,15.96
2018-07-02T07:01:22.934Z,16.00
2018-07-02T07:02:23.411Z,16.02
2018-07-02T07:03:23.888Z,16.07
2018-07-02T07:04:24.363Z,16.12
2018-07-02T07:05:24.840Z,16.14
2018-07-02T07:06:25.319Z,16.18
2018-07-02T07:07:25.794Z,16.21
2018-07-02T07:08:26.269Z,16.26
2018-07-02T07:09:26.746Z,16.29
2018-07-02T07:10:27.225Z,16.33
2018-07-02T07:11:27.699Z,16.37
2018-07-02T07:12:28.177Z,16.38
2018-07-02T07:13:28.652Z,16.41
2018-07-02T07:14:29.130Z,16.46
2018-07-02T07:15:29.657Z,16.48
2018-07-02T07:16:30.083Z,16.50
2018-07-02T07:17:30.556Z,16.54
2018-07-02T07:18:31.033Z,16.58
2018-07-02T07:19:31.508Z,16.60
2018-07-02T07:20:31.984Z,16.62
2018-07-02T07:21:32.459Z,16.64
2018-07-02T07:22:32.937Z,16.66
2018-07-02T07:23:33.411Z,16.68
2018-07-02T07:24:33.936Z,16.71
2018-07-02T07:25:34.362Z,16.72
2018-07-02T07:26:34.838Z,16.75
2018-07-02T07:27:35.366Z,16.76
2018-07-02T07:28:35.786Z,16.78
2018-07-02T07:29:36.362Z,16.79
2018-07-02T07:30:36.739Z,16.80
2018-07-02T07:31:37.211Z,16.80
2018-07-02T07:32:37.689Z,16.80
2018-07-02T07:33:38.163Z,16.80
2018-07-02T07:34:38.638Z,16.81
2018-07-02T07:35:39.111Z,16.82
2018-07-02T07:36:39.586Z,16.81
2018-07-02T07:37:40.061Z,16.81
2018-07-02T07:38:40.534Z,16.81
2018-07-02T07:39:41.007Z,16.80
2018-07-02T07:40:41.483Z,16.80
2018-07-02T07:41:41.959Z,16.80
2018-07-02T07:42:42.432Z,16.80
2018-07-02T07:43:42.904Z,16.79
2018-07-02T07:44:43.458Z,16.79
2018-07-02T07:45:43.852Z,16.78
2018-07-02T07:46:44.326Z,16.78
2018-07-02T07:47:44.799Z,16.75
2018-07-02T07:48:45.273Z,16.75
2018-07-02T07:49:45.748Z,16.72
2018-07-02T07:50:46.224Z,16.72
2018-07-02T07:51:46.698Z,16.71
2018-07-02T07:52:47.168Z,16.70
2018-07-02T07:53:47.641Z,16.70
2018-07-02T07:54:48.116Z,16.69
2018-07-02T07:55:48.587Z,16.68
2018-07-02T07:56:49.059Z,16.66
2018-07-02T07:57:49.533Z,16.66
2018-07-02T07:58:50.006Z,16.64
2018-07-02T07:59:50.480Z,16.64
2018-07-02T08:00:50.955Z,16.63
2018-07-02T08:01:51.426Z,16.61
2018-07-02T08:02:51.898Z,16.60
2018-07-02T08:03:52.370Z,16.59
2018-07-02T08:04:52.846Z,16.57
2018-07-02T08:05:53.314Z,16.56
2018-07-02T08:06:53.790Z,16.55
2018-07-02T08:07:54.261Z,16.52
2018-07-02T08:08:54.736Z,16.51
2018-07-02T08:09:55.258Z,16.50
2018-07-02T08:11:56.153Z,16.47
2018-07-02T08:12:56.622Z,16.46
2018-07-02T08:13:57.096Z,16.44
2018-07-02T08:14:57.604Z,16.44
2018-07-02T08:15:58.040Z,16.42
2018-07-02T08:16:58.512Z,16.41
2018-07-02T08:17:58.984Z,16.40
2018-07-02T08:18:59.486Z,16.40
2018-07-02T08:19:59.931Z,16.39
2018-07-02T08:21:00.400Z,16.39
2018-07-02T08:22:00.872Z,16.38
2018-07-02T08:23:01.445Z,16.35
2018-07-02T08:24:01.815Z,16.36
2018-07-02T08:25:02.287Z,16.34
2018-07-02T08:26:02.762Z,16.34
2018-07-02T08:27:03.232Z,16.32
2018-07-02T08:28:03.702Z,16.32
2018-07-02T08:29:04.174Z,16.31
2018-07-02T08:30:04.645Z,16.30
2018-07-02T08:31:05.120Z,16.29
2018-07-02T08:32:05.590Z,16.29
2018-07-02T08:33:06.068Z,16.29
2018-07-02T08:34:06.532Z,16.28
2018-07-02T08:35:07.006Z,16.27
2018-07-02T08:36:07.475Z,16.28
2018-07-02T08:37:07.947Z,16.26
2018-07-02T08:38:08.419Z,16.27
2018-07-02T08:39:08.891Z,16.25
2018-07-02T08:40:09.361Z,16.26
2018-07-02T08:41:09.831Z,16.24
2018-07-02T08:42:10.304Z,16.22
2018-07-02T08:43:10.774Z,16.20
2018-07-02T08:44:11.246Z,16.22
2018-07-02T08:45:11.769Z,16.22
2018-07-02T08:46:12.190Z,16.20
2018-07-02T08:47:12.661Z,16.19
2018-07-02T08:48:13.134Z,16.20
2018-07-02T08:49:13.609Z,16.20
2018-07-02T08:50:14.079Z,16.18
2018-07-02T08:51:14.553Z,16.18
2018-07-02T08:52:15.023Z,16.17
2018-07-02T08:53:15.503Z,16.17
2018-07-02T08:54:15.970Z,16.16
2018-07-02T08:55:16.494Z,16.18
2018-07-02T08:56:16.919Z,16.16
2018-07-02T08:57:17.391Z,16.16
2018-07-02T08:58:17.931Z,16.16
2018-07-02T08:59:18.339Z,16.16
2018-07-02T09:00:18.867Z,16.16
2018-07-02T09:01:19.296Z,16.14
2018-07-02T09:02:19.767Z,16.14
2018-07-02T09:03:20.239Z,16.12
2018-07-02T09:04:20.714Z,16.14
2018-07-02T09:05:21.190Z,16.13
2018-07-02T09:06:21.664Z,16.12
2018-07-02T09:07:22.146Z,16.13
2018-07-02T09:08:22.616Z,16.11
2018-07-02T09:09:23.093Z,16.12
2018-07-02T09:10:23.619Z,16.12
2018-07-02T09:11:24.045Z,16.11
2018-07-02T09:12:24.521Z,16.10
2018-07-02T09:13:24.997Z,16.10
2018-07-02T09:14:25.473Z,16.10
2018-07-02T09:15:25.950Z,16.08
2018-07-02T09:16:26.423Z,16.08
2018-07-02T09:17:26.901Z,16.07
2018-07-02T09:18:27.377Z,16.07
2018-07-02T09:19:27.856Z,16.06
2018-07-02T09:20:28.329Z,16.06
2018-07-02T09:21:28.862Z,16.04
2018-07-02T09:22:29.280Z,16.04
2018-07-02T09:23:29.756Z,16.02
2018-07-02T09:24:30.232Z,16.00
2018-07-02T09:25:30.706Z,15.99
2018-07-02T09:26:31.184Z,15.99
2018-07-02T09:27:31.659Z,15.96
2018-07-02T09:28:32.132Z,15.95
2018-07-02T09:29:32.608Z,15.96
2018-07-02T09:30:33.083Z,15.96
2018-07-02T09:31:33.557Z,15.95
2018-07-02T09:32:34.047Z,15.94
2018-07-02T09:33:34.508Z,15.94
2018-07-02T09:34:34.983Z,15.94
2018-07-02T09:35:35.457Z,15.93
2018-07-02T09:36:35.932Z,15.94
2018-07-02T09:37:36.407Z,15.94
2018-07-02T09:38:36.881Z,15.92
2018-07-02T09:39:37.355Z,15.94
2018-07-02T09:40:37.830Z,15.93
2018-07-02T09:41:38.302Z,15.92
2018-07-02T09:42:38.777Z,15.94
2018-07-02T09:43:39.251Z,15.93
2018-07-02T09:44:39.724Z,15.93
2018-07-02T09:45:40.250Z,15.94
2018-07-02T09:46:40.674Z,15.95
2018-07-02T09:47:41.150Z,15.94
2018-07-02T09:48:41.619Z,15.94
2018-07-02T09:49:42.092Z,15.94
2018-07-02T09:50:42.618Z,15.95
2018-07-02T09:51:43.042Z,15.95
2018-07-02T09:52:43.512Z,15.95
2018-07-02T09:53:43.988Z,15.95
2018-07-02T09:54:44.464Z,15.95
2018-07-02T09:55:44.933Z,15.96
2018-07-02T09:56:45.408Z,15.96
2018-07-02T09:57:45.879Z,15.98
2018-07-02T09:58:46.574Z,15.98
2018-07-02T09:59:46.825Z,16.00
2018-07-02T10:00:47.300Z,16.00
2018-07-02T10:01:47.771Z,16.02
2018-07-02T10:02:48.243Z,16.03
2018-07-02T10:03:48.720Z,16.04
2018-07-02T10:04:49.189Z,16.08
2018-07-02T10:05:49.662Z,16.07
2018-07-02T10:06:50.134Z,16.10
2018-07-02T10:07:50.607Z,16.11
2018-07-02T10:08:51.079Z,16.13
2018-07-02T10:09:51.556Z,16.14
2018-07-02T10:10:52.031Z,16.16
2018-07-02T10:11:52.498Z,16.17
2018-07-02T10:12:52.969Z,16.21
2018-07-02T10:13:53.441Z,16.23
2018-07-02T10:14:53.921Z,16.26
2018-07-02T10:15:54.388Z,16.26
2018-07-02T10:16:54.859Z,16.28
2018-07-02T10:17:55.330Z,16.30
2018-07-02T10:18:55.802Z,16.33
2018-07-02T10:19:56.278Z,16.35
2018-07-02T10:20:56.748Z,16.38
2018-07-02T10:21:57.220Z,16.40
2018-07-02T10:22:57.693Z,16.40
2018-07-02T10:23:58.225Z,16.42
2018-07-02T10:24:58.636Z,16.43
2018-07-02T10:25:59.239Z,16.46
2018-07-02T10:26:59.583Z,16.48
2018-07-02T10:28:00.054Z,16.50
2018-07-02T10:29:00.527Z,16.52
2018-07-02T10:30:01.000Z,16.54
2018-07-02T10:31:01.679Z,16.56
2018-07-02T10:32:01.943Z,16.56
2018-07-02T10:33:02.414Z,16.59
2018-07-02T10:34:02.885Z,16.62
2018-07-02T10:35:03.360Z,16.64
2018-07-02T10:36:03.829Z,16.67
2018-07-02T10:37:04.302Z,16.68
2018-07-02T10:38:04.773Z,16.71
2018-07-02T10:39:05.244Z,16.74
2018-07-02T10:40:05.719Z,16.75
2018-07-02T10:41:06.188Z,16.77
2018-07-02T10:42:06.659Z,16.78
2018-07-02T10:43:07.131Z,16.80
2018-07-02T10:44:07.605Z,16.82
2018-07-02T10:45:08.075Z,16.84
2018-07-02T10:46:08.551Z,16.86
2018-07-02T10:47:09.019Z,16.88
2018-07-02T10:48:09.490Z,16.88
2018-07-02T10:49:09.962Z,16.90
2018-07-02T10:50:10.452Z,16.93
2018-07-02T10:51:10.957Z,16.94
2018-07-02T10:52:11.378Z,16.96
2018-07-02T10:53:11.848Z,16.98
2018-07-02T10:54:12.321Z,16.98
2018-07-02T10:55:12.792Z,17.02
2018-07-02T10:56:13.517Z,17.02
2018-07-02T10:57:13.735Z,17.06
2018-07-02T10:58:14.208Z,17.07
2018-07-02T10:59:14.680Z,17.07
2018-07-02T11:01:15.648Z,17.13
2018-07-02T11:02:16.096Z,17.12
2018-07-02T11:03:16.568Z,17.14
2018-07-02T11:04:17.038Z,17.16
2018-07-02T11:05:17.511Z,17.16
2018-07-02T11:06:17.984Z,17.18
2018-07-02T11:07:18.453Z,17.18
2018-07-02T11:08:18.929Z,17.22
2018-07-02T11:09:19.396Z,17.22
2018-07-02T11:10:19.870Z,17.24
2018-07-02T11:11:20.382Z,17.26
2018-07-02T11:12:20.818Z,17.28
2018-07-02T11:13:21.288Z,17.30
2018-07-02T11:14:21.755Z,17.28
2018-07-02T11:15:22.227Z,17.32
2018-07-02T11:16:22.749Z,17.32
2018-07-02T11:17:23.170Z,17.33
2018-07-02T11:18:23.645Z,17.36
2018-07-02T11:19:24.115Z,17.36
2018-07-02T11:20:24.589Z,17.36
2018-07-02T11:21:25.062Z,17.38
2018-07-02T11:22:25.529Z,17.39
2018-07-02T11:23:26.002Z,17.40
2018-07-02T11:24:26.472Z,17.40
2018-07-02T11:25:26.945Z,17.43
2018-07-02T11:26:27.467Z,17.44
2018-07-02T11:27:27.889Z,17.44
2018-07-02T11:28:28.361Z,17.46
2018-07-02T11:29:28.831Z,17.44
2018-07-02T11:30:29.304Z,17.46
2018-07-02T11:31:29.777Z,17.45
2018-07-02T11:32:30.252Z,17.46
2018-07-02T11:33:30.718Z,17.46
2018-07-02T11:34:31.190Z,17.46
2018-07-02T11:35:31.662Z,17.49
2018-07-02T11:36:32.134Z,17.50
2018-07-02T11:37:32.656Z,17.50
2018-07-02T11:38:33.081Z,17.50
2018-07-02T11:39:33.548Z,17.52
2018-07-02T11:40:34.224Z,17.52
2018-07-02T11:41:34.491Z,17.53
2018-07-02T11:42:34.963Z,17.53
2018-07-02T11:43:35.437Z,17.54
2018-07-02T11:44:35.908Z,17.54
2018-07-02T11:45:36.380Z,17.54
2018-07-02T11:46:36.851Z,17.55
2018-07-02T11:47:37.323Z,17.57
2018-07-02T11:48:37.794Z,17.57
2018-07-02T11:49:38.355Z,17.58
2018-07-02T11:50:38.740Z,17.57
2018-07-02T11:51:39.214Z,17.59
2018-07-02T11:52:39.683Z,17.58
2018-07-02T11:53:40.154Z,17.58
2018-07-02T11:54:40.630Z,17.59
2018-07-02T11:55:41.099Z,17.60
2018-07-02T11:56:41.572Z,17.62
2018-07-02T11:57:42.042Z,17.62
2018-07-02T11:58:42.514Z,17.64
2018-07-02T11:59:42.985Z,17.64
2018-07-02T12:00:43.460Z,17.66
2018-07-02T12:01:43.929Z,17.67
2018-07-02T12:02:44.400Z,17.68
2018-07-02T12:03:44.873Z,17.69
2018-07-02T12:04:45.344Z,17.70
2018-07-02T12:05:45.817Z,17.71
2018-07-02T12:06:46.288Z,17.73
2018-07-02T12:07:46.764Z,17.74
2018-07-02T12:08:47.233Z,17.76
2018-07-02T12:09:47.704Z,17.77
2018-07-02T12:10:48.177Z,17.80
2018-07-02T12:11:48.650Z,17.80
2018-07-02T12:12:49.120Z,17.84
2018-07-02T12:13:49.591Z,17.84
2018-07-02T12:14:50.063Z,17.85
2018-07-02T12:15:50.536Z,17.86
2018-07-02T12:16:51.009Z,17.86
2018-07-02T12:17:51.481Z,17.88
2018-07-02T12:18:51.953Z,17.88
2018-07-02T12:19:52.422Z,17.90
2018-07-02T12:20:52.894Z,17.90
2018-07-02T12:21:53.370Z,17.93
2018-07-02T12:22:53.839Z,17.95
2018-07-02T12:23:54.311Z,17.95
2018-07-02T12:24:54.782Z,17.96
2018-07-02T12:25:55.254Z,17.98
2018-07-02T12:26:55.778Z,17.99
2018-07-02T12:27:56.200Z,18.02
2018-07-02T12:28:56.670Z,18.00
2018-07-02T12:29:57.154Z,18.04
2018-07-02T12:30:57.615Z,18.03
2018-07-02T12:31:58.087Z,18.05
2018-07-02T12:32:58.559Z,18.07
2018-07-02T12:33:59.031Z,18.08
2018-07-02T12:34:59.505Z,18.10
2018-07-02T12:35:59.976Z,18.10
2018-07-02T12:37:00.448Z,18.12
2018-07-02T12:38:00.918Z,18.12
2018-07-02T12:39:01.391Z,18.12
2018-07-02T12:40:01.865Z,18.14
2018-07-02T12:41:02.339Z,18.15
2018-07-02T12:42:02.859Z,18.16
2018-07-02T12:43:03.281Z,18.18
2018-07-02T12:44:03.753Z,18.18
2018-07-02T12:45:04.224Z,18.20
2018-07-02T12:46:04.695Z,18.20
2018-07-02T12:47:05.169Z,18.21
2018-07-02T12:48:05.643Z,18.24
2018-07-02T12:49:06.114Z,18.25
2018-07-02T12:50:06.583Z,18.26
2018-07-02T12:51:07.059Z,18.27
2018-07-02T12:52:07.578Z,18.26
2018-07-02T12:53:08.001Z,18.28
2018-07-02T12:54:08.501Z,18.27
2018-07-02T12:55:08.950Z,18.31
2018-07-02T12:56:09.417Z,18.32
2018-07-02T12:57:09.891Z,18.33
2018-07-02T12:58:10.360Z,18.34
2018-07-02T12:59:10.834Z,18.36
2018-07-02T13:00:11.307Z,18.40
2018-07-02T13:01:11.777Z,18.40
2018-07-02T13:02:12.253Z,18.41
2018-07-02T13:03:12.725Z,18.43
2018-07-02T13:04:13.204Z,18.44
2018-07-02T13:05:13.667Z,18.46
2018-07-02T13:06:14.138Z,18.47
2018-07-02T13:07:14.612Z,18.50